Main page
METAR-TAF:

METAR-TAF

Airports :

Zeltweg Air Base

Zeltweg, Austria

latitude: 47-12N, longitude: 014-45E, elevation: 677 m

Current weather observation

The report was made 44 minutes ago, at 17:50 UTC
Wind 2 kt from the Southwest
Temperature 2°C
Humidity 75%
Pressure 1022 hPa

METAR: LOXZ 171750Z 22002KT 10KM FEW040SC OVC200CS 02/M02 Q1022

Time: 19:34 (18:34 UTC)

Forecast

The report was made 7 hours and 19 minutes ago, at 11:15 UTC
Forecast valid from 17 at 12 UTC to 17 at 21 UTC
Wind 3 kt from variable directions
Visibility 10 km or more
Few clouds at a height of 4000 ft
Broken clouds at a height of 24000 ft
Probability 30% :
Temporary
from 17 at 19 UTC to 17 at 21 UTC
Visibility: 0800 m

TAF: LOXZ 171115Z 1712/1721 VRB03KT 9999 FEW040 BKN240 PROB30 TEMPO 1719/1721 0800 FZBCFG

Weather observations and forecasts of more than 4000 airports (METAR and TAF reports).

The available stations are represented by yellow and red dots on the map.

Hover mouse over dot to see the name of the station.

Then click to see weather observations and forecasts.

To change the map : click on the green buttons with a black cross to zoom in, on the green button with a dash to zoom out, or on the green arrows for adjacent maps.


METAR-TAF: